Time;durP1;ratioP1;P1;durP2;ratioP2;P2;SDS_P1;SDS_P2;PMS_P1;PMS_P2;Temp;Humidity;BMP_temperature;BMP_pressure;BME280_temperature;BME280_humidity;BME280_pressure;Samples;Min_cycle;Max_cycle;Signal;HPM_P1;HPM_P2
2022/02/05 00:01:46;;;;;;;0.50;0.30;;;5.30;99.90;;;;;;5072941;28;20204;-64
2022/02/05 00:04:15;;;;;;;0.50;0.40;;;5.30;99.90;;;;;;5072200;28;20235;-64
2022/02/05 00:06:47;;;;;;;1.00;0.40;;;5.30;99.90;;;;;;5072233;28;20751;-63
2022/02/05 00:09:20;;;;;;;1.30;0.60;;;5.30;99.90;;;;;;5072039;28;20205;-64
2022/02/05 00:12:12;;;;;;;1.13;0.73;;;5.20;99.90;;;;;;5071743;28;20205;-63
2022/02/05 00:15:04;;;;;;;1.73;0.70;;;5.20;99.90;;;;;;5072188;28;20263;-63
2022/02/05 00:33:06;;;;;;;0.30;0.30;;;5.10;99.90;;;;;;5071983;28;20323;-64
2022/02/05 00:40:00;;;;;;;1.13;0.70;;;5.20;99.90;;;;;;5072345;28;20694;-64
2022/02/05 00:42:37;;;;;;;0.87;0.60;;;5.10;99.90;;;;;;5072237;28;20211;-64
2022/02/05 00:45:08;;;;;;;0.83;0.40;;;5.10;99.90;;;;;;5071774;28;20229;-64
2022/02/05 00:47:36;;;;;;;0.40;0.40;;;5.20;99.90;;;;;;5072128;28;20664;-64
2022/02/05 00:50:07;;;;;;;0.80;0.53;;;5.10;99.90;;;;;;5071803;28;20201;-64
2022/02/05 00:52:33;;;;;;;0.40;0.40;;;5.20;99.90;;;;;;5072109;28;20571;-64
2022/02/05 00:55:08;;;;;;;1.23;0.50;;;5.20;99.90;;;;;;5071628;28;20248;-64
2022/02/05 00:57:45;;;;;;;1.10;0.50;;;5.20;99.90;;;;;;5071763;28;20298;-64
2022/02/05 01:00:15;;;;;;;1.37;0.40;;;5.20;99.90;;;;;;5071639;28;20679;-64
2022/02/05 01:02:42;;;;;;;0.57;0.50;;;5.20;99.90;;;;;;5071945;28;20212;-64
2022/02/05 01:05:09;;;;;;;0.80;0.40;;;5.20;99.90;;;;;;5071667;28;20229;-64
2022/02/05 01:07:37;;;;;;;1.50;0.63;;;5.20;99.90;;;;;;5071810;28;20208;-64
2022/02/05 01:10:06;;;;;;;1.80;0.73;;;5.20;99.90;;;;;;5071400;28;20227;-64
2022/02/05 01:12:36;;;;;;;1.80;0.73;;;5.10;99.90;;;;;;5071852;28;20239;-63
2022/02/05 01:15:04;;;;;;;0.83;0.80;;;4.90;99.90;;;;;;5071930;28;20260;-64
2022/02/05 01:17:35;;;;;;;0.87;0.70;;;4.90;99.90;;;;;;5071809;28;20209;-64
2022/02/05 01:22:48;;;;;;;3.57;0.97;;;4.90;99.90;;;;;;5071752;28;20668;-64
2022/02/05 01:25:21;;;;;;;1.87;1.00;;;4.90;99.90;;;;;;5075403;28;20233;-64
2022/02/05 01:27:52;;;;;;;2.37;0.90;;;4.90;99.90;;;;;;5075442;28;20564;-64
2022/02/05 01:30:24;;;;;;;2.70;1.10;;;4.80;99.90;;;;;;5075219;28;20208;-64
2022/02/05 01:33:04;;;;;;;3.53;1.23;;;4.70;99.90;;;;;;5075230;28;20270;-64
2022/02/05 01:35:39;;;;;;;3.10;0.90;;;4.70;99.90;;;;;;5075645;28;20207;-64
2022/02/05 01:49:49;;;;;;;3.80;1.10;;;4.50;99.90;;;;;;5074867;28;20238;-64
2022/02/05 01:52:21;;;;;;;1.57;0.90;;;4.40;99.90;;;;;;5074852;28;20211;-64
2022/02/05 01:55:07;;;;;;;2.80;1.10;;;4.30;99.90;;;;;;5074787;28;20240;-64
2022/02/05 01:57:47;;;;;;;2.53;1.00;;;4.40;99.90;;;;;;5074870;28;20205;-64
2022/02/05 02:05:53;;;;;;;3.00;1.30;;;4.30;99.90;;;;;;5074658;28;20243;-64
2022/02/05 02:11:29;;;;;;;4.10;1.10;;;4.10;99.90;;;;;;5074736;28;20230;-64
2022/02/05 02:17:06;;;;;;;3.67;0.90;;;4.10;99.90;;;;;;5066956;28;20216;-64
2022/02/05 02:19:43;;;;;;;2.20;1.03;;;4.00;99.90;;;;;;5074478;28;20231;-64
2022/02/05 02:22:17;;;;;;;2.00;1.40;;;4.00;99.90;;;;;;5074483;28;20262;-64
2022/02/05 02:24:57;;;;;;;9.27;1.50;;;4.00;99.90;;;;;;5074268;28;20238;-64
2022/02/05 02:27:32;;;;;;;2.70;0.90;;;3.90;99.90;;;;;;5074634;28;20208;-64
2022/02/05 02:30:03;;;;;;;2.07;1.27;;;3.90;99.90;;;;;;5074196;28;20204;-64
2022/02/05 02:32:32;;;;;;;3.47;1.13;;;3.90;99.90;;;;;;5074241;28;20577;-64
2022/02/05 02:35:03;;;;;;;3.53;1.20;;;3.90;99.90;;;;;;5073732;28;20652;-64
2022/02/05 02:37:37;;;;;;;2.83;1.03;;;3.90;99.90;;;;;;5074121;28;20209;-64
2022/02/05 02:40:09;;;;;;;1.93;1.10;;;3.80;99.90;;;;;;5074191;28;20209;-64
2022/02/05 02:42:42;;;;;;;3.87;1.03;;;3.90;99.90;;;;;;5074398;28;20236;-64
2022/02/05 02:45:09;;;;;;;3.13;1.00;;;3.80;99.90;;;;;;5073935;28;20235;-64
2022/02/05 02:47:40;;;;;;;4.57;1.30;;;3.80;99.90;;;;;;5073981;28;20209;-64
2022/02/05 02:50:12;;;;;;;4.30;1.43;;;3.70;99.90;;;;;;5073585;28;20233;-64
2022/02/05 02:58:15;;;;;;;3.33;1.10;;;3.70;99.90;;;;;;5082261;28;20203;-65
2022/02/05 03:00:42;;;;;;;4.00;1.40;;;3.70;99.90;;;;;;5076081;28;20231;-64
2022/02/05 03:03:08;;;;;;;3.10;1.20;;;3.70;99.90;;;;;;5074739;28;20254;-66
2022/02/05 03:05:35;;;;;;;2.63;1.20;;;3.70;99.90;;;;;;5073929;28;20286;-67
2022/02/05 03:08:05;;;;;;;2.37;1.10;;;3.70;99.90;;;;;;5074237;28;20213;-64
2022/02/05 03:10:32;;;;;;;4.20;1.13;;;3.60;99.90;;;;;;5073604;28;20225;-64
2022/02/05 03:12:58;;;;;;;5.80;1.60;;;3.60;99.90;;;;;;5073540;28;20212;-64
2022/02/05 03:15:25;;;;;;;3.23;1.30;;;3.60;99.90;;;;;;5073841;28;20228;-64
2022/02/05 03:18:02;;;;;;;4.07;1.50;;;3.60;99.90;;;;;;5073706;28;20212;-63
2022/02/05 03:20:29;;;;;;;4.90;1.63;;;3.60;99.90;;;;;;5073452;28;20213;-65
2022/02/05 03:22:55;;;;;;;3.53;1.40;;;3.50;99.90;;;;;;5073625;28;20213;-64
2022/02/05 03:25:23;;;;;;;3.77;1.30;;;3.50;99.90;;;;;;5073192;28;20286;-64
2022/02/05 03:27:50;;;;;;;3.93;1.80;;;3.50;99.90;;;;;;5073551;28;20208;-64
2022/02/05 03:30:17;;;;;;;4.17;1.30;;;3.50;99.90;;;;;;5073302;28;20240;-65
2022/02/05 03:32:43;;;;;;;3.93;1.40;;;3.50;99.90;;;;;;5073310;28;20200;-64
2022/02/05 03:35:10;;;;;;;3.90;1.40;;;3.50;99.90;;;;;;5073405;28;20712;-62
2022/02/05 03:37:37;;;;;;;4.43;1.40;;;3.50;99.90;;;;;;5073382;28;20213;-64
2022/02/05 03:40:04;;;;;;;2.93;1.57;;;3.50;99.90;;;;;;5072886;28;20577;-66
2022/02/05 03:42:32;;;;;;;3.50;1.73;;;3.50;99.90;;;;;;5073422;28;20205;-66
2022/02/05 03:44:59;;;;;;;5.53;1.57;;;3.50;99.90;;;;;;5073181;28;20228;-64
2022/02/05 03:47:30;;;;;;;7.20;1.57;;;3.50;99.90;;;;;;5072395;28;20204;-64
2022/02/05 03:49:57;;;;;;;3.43;1.63;;;3.50;99.90;;;;;;5072607;28;20615;-64
2022/02/05 03:52:23;;;;;;;4.13;1.70;;;3.50;99.90;;;;;;5072893;28;20257;-64
2022/02/05 03:54:50;;;;;;;4.43;1.47;;;3.50;99.90;;;;;;5072675;28;20240;-64
2022/02/05 03:57:17;;;;;;;4.10;1.53;;;3.50;99.90;;;;;;5072946;28;20204;-64
2022/02/05 03:59:45;;;;;;;4.97;2.00;;;3.40;99.90;;;;;;5072551;28;20205;-64
2022/02/05 04:02:12;;;;;;;3.57;1.70;;;3.40;99.90;;;;;;5072749;28;20219;-64
2022/02/05 04:04:39;;;;;;;4.87;1.90;;;3.40;99.90;;;;;;5072741;28;20220;-64
2022/02/05 04:07:06;;;;;;;4.97;2.30;;;3.40;99.90;;;;;;5072565;28;20738;-64
2022/02/05 04:09:38;;;;;;;2.80;1.40;;;3.40;99.90;;;;;;5072815;28;20474;-64
2022/02/05 04:17:36;;;;;;;3.80;1.90;;;3.30;99.90;;;;;;5074149;28;20286;-64
2022/02/05 04:20:03;;;;;;;10.03;2.50;;;3.30;99.90;;;;;;5073415;28;20209;-63
2022/02/05 04:22:31;;;;;;;5.57;1.93;;;3.20;99.90;;;;;;5072938;28;20209;-63
2022/02/05 04:24:58;;;;;;;6.77;1.93;;;3.20;99.90;;;;;;5072642;28;20221;-63
2022/02/05 04:27:25;;;;;;;4.63;1.63;;;3.20;99.90;;;;;;5072494;28;20246;-64
2022/02/05 04:29:53;;;;;;;4.00;2.10;;;3.20;99.90;;;;;;5072416;28;20227;-62
2022/02/05 04:32:19;;;;;;;3.50;1.90;;;3.20;99.90;;;;;;5072670;28;20330;-62
2022/02/05 04:34:46;;;;;;;6.23;2.30;;;3.20;99.90;;;;;;5072512;28;20255;-63
2022/02/05 04:37:13;;;;;;;4.17;2.17;;;3.30;99.90;;;;;;5072668;28;20208;-64
2022/02/05 04:39:46;;;;;;;5.23;2.00;;;3.40;99.90;;;;;;5072088;28;20201;-64
2022/02/05 04:42:19;;;;;;;3.20;2.10;;;3.60;99.90;;;;;;5072358;28;20205;-64
2022/02/05 04:45:14;;;;;;;6.67;3.27;;;3.70;99.90;;;;;;5072091;28;20739;-62
2022/02/05 04:47:57;;;;;;;5.30;2.23;;;3.90;99.90;;;;;;5072215;28;20227;-64
2022/02/05 04:50:39;;;;;;;3.13;1.83;;;4.10;99.90;;;;;;5071956;28;20212;-64
2022/02/05 04:53:19;;;;;;;4.73;1.90;;;4.20;99.90;;;;;;5072479;28;20201;-64
2022/02/05 04:56:19;;;;;;;3.80;2.10;;;4.20;99.90;;;;;;5071856;28;20694;-63
2022/02/05 04:59:27;;;;;;;4.67;1.90;;;4.20;99.90;;;;;;5075534;28;20248;-64
2022/02/05 05:04:45;;;;;;;2.93;1.83;;;4.20;99.90;;;;;;5076554;28;20227;-64
2022/02/05 05:10:02;;;;;;;3.37;1.90;;;4.10;99.90;;;;;;5072159;28;20283;-64
2022/02/05 05:12:36;;;;;;;7.43;2.30;;;4.10;99.90;;;;;;5076574;28;20247;-63
2022/02/05 05:15:28;;;;;;;6.00;2.00;;;4.00;99.90;;;;;;5076546;28;20287;-63
2022/02/05 05:20:41;;;;;;;4.70;2.20;;;4.10;99.90;;;;;;5076046;28;20199;-62
2022/02/05 05:23:08;;;;;;;3.80;1.80;;;4.10;99.90;;;;;;5076086;28;20213;-64
2022/02/05 05:25:34;;;;;;;3.33;1.83;;;4.20;99.90;;;;;;5075622;28;20245;-65
2022/02/05 05:28:02;;;;;;;5.53;1.87;;;4.20;99.90;;;;;;5075745;28;20208;-63
2022/02/05 05:30:29;;;;;;;3.20;2.10;;;4.30;99.90;;;;;;5075287;28;20204;-62
2022/02/05 05:32:56;;;;;;;4.53;1.90;;;4.30;99.90;;;;;;5075710;28;20209;-62
2022/02/05 05:35:22;;;;;;;7.80;2.50;;;4.40;99.90;;;;;;5075714;28;20255;-64
2022/02/05 05:37:52;;;;;;;6.00;2.00;;;4.40;99.90;;;;;;5075733;28;20627;-63
2022/02/05 05:40:19;;;;;;;2.30;1.70;;;4.50;99.90;;;;;;5075284;28;20602;-64
2022/02/05 05:42:52;;;;;;;7.37;2.50;;;4.50;99.90;;;;;;5075618;28;20209;-63
2022/02/05 05:45:37;;;;;;;4.10;1.90;;;4.50;99.90;;;;;;5075643;28;20319;-64
2022/02/05 05:48:09;;;;;;;4.70;2.57;;;4.50;99.90;;;;;;5075752;28;20216;-63
2022/02/05 05:50:58;;;;;;;7.27;2.50;;;4.60;99.90;;;;;;5075217;28;20244;-63
2022/02/05 05:53:27;;;;;;;3.43;1.73;;;4.70;99.90;;;;;;5075026;28;20281;-64
2022/02/05 05:55:54;;;;;;;4.97;2.83;;;4.90;99.90;;;;;;5075296;28;20205;-64
2022/02/05 05:58:21;;;;;;;3.87;2.40;;;5.00;99.90;;;;;;5075357;28;20237;-64
2022/02/05 06:00:50;;;;;;;5.83;3.60;;;5.20;99.90;;;;;;5074698;28;20208;-65
2022/02/05 06:03:17;;;;;;;6.53;1.70;;;5.30;99.90;;;;;;5074843;28;20205;-64
2022/02/05 06:05:44;;;;;;;5.43;2.37;;;5.30;99.90;;;;;;5074579;28;20232;-64
2022/02/05 06:08:11;;;;;;;3.23;2.10;;;5.30;99.90;;;;;;5075056;28;20209;-64
2022/02/05 06:10:40;;;;;;;3.77;1.63;;;5.40;99.90;;;;;;5075285;28;20696;-64
2022/02/05 06:13:07;;;;;;;10.87;2.40;;;5.50;99.90;;;;;;5075945;28;20673;-65
2022/02/05 06:15:35;;;;;;;11.23;4.63;;;5.60;99.90;;;;;;5074963;28;20232;-65
2022/02/05 06:18:01;;;;;;;4.57;2.20;;;5.70;99.90;;;;;;5074542;28;20665;-64
2022/02/05 06:20:28;;;;;;;5.43;2.20;;;5.80;99.90;;;;;;5074275;28;20236;-65
2022/02/05 06:22:54;;;;;;;3.47;1.77;;;5.80;99.90;;;;;;5074686;28;20208;-65
2022/02/05 06:25:21;;;;;;;3.17;1.47;;;5.90;99.90;;;;;;5074486;28;20232;-65
2022/02/05 06:27:49;;;;;;;4.37;2.30;;;5.90;99.90;;;;;;5074382;28;20221;-65
2022/02/05 06:30:16;;;;;;;5.67;2.00;;;5.90;99.90;;;;;;5074166;28;20645;-65
2022/02/05 06:32:43;;;;;;;2.70;1.60;;;5.90;99.90;;;;;;5074488;28;20209;-65
2022/02/05 06:35:10;;;;;;;3.07;1.77;;;5.90;99.90;;;;;;5074120;28;20663;-65
2022/02/05 06:37:37;;;;;;;6.97;1.93;;;6.00;99.90;;;;;;5074519;28;20201;-64
2022/02/05 06:40:05;;;;;;;5.80;2.83;;;5.90;99.90;;;;;;5074044;28;20263;-64
2022/02/05 06:42:32;;;;;;;3.10;1.63;;;5.90;99.90;;;;;;5074203;28;20672;-65
2022/02/05 06:45:00;;;;;;;5.13;1.97;;;6.00;99.90;;;;;;5074053;28;20728;-65
2022/02/05 06:47:27;;;;;;;5.10;1.97;;;6.10;99.90;;;;;;5073740;28;20741;-67
2022/02/05 06:49:53;;;;;;;6.23;2.27;;;6.10;99.90;;;;;;5074038;28;20267;-65
2022/02/05 06:52:20;;;;;;;4.83;2.20;;;6.10;99.90;;;;;;5074053;28;20205;-64
2022/02/05 06:54:47;;;;;;;5.13;1.87;;;6.20;99.90;;;;;;5073821;28;20237;-64
2022/02/05 06:57:13;;;;;;;5.40;1.90;;;6.30;99.90;;;;;;5073919;28;20215;-65
2022/02/05 06:59:40;;;;;;;4.97;2.17;;;6.30;99.90;;;;;;5073525;28;20209;-66
2022/02/05 07:02:08;;;;;;;5.27;1.87;;;6.40;99.90;;;;;;5073704;28;20208;-64
2022/02/05 07:04:35;;;;;;;2.53;2.00;;;6.50;99.90;;;;;;5073633;28;20570;-62
2022/02/05 07:07:03;;;;;;;3.60;1.80;;;6.50;99.90;;;;;;5073720;28;20324;-64
2022/02/05 07:09:30;;;;;;;4.20;1.83;;;6.40;99.90;;;;;;5073505;28;20205;-63
2022/02/05 07:11:59;;;;;;;5.67;1.93;;;6.40;99.90;;;;;;5073613;28;20669;-65
2022/02/05 07:14:30;;;;;;;3.90;2.00;;;6.30;99.90;;;;;;5073259;28;20225;-63
2022/02/05 07:17:03;;;;;;;4.83;2.70;;;6.30;99.90;;;;;;5073302;28;20295;-64
2022/02/05 07:19:42;;;;;;;6.30;2.30;;;6.40;99.90;;;;;;5073561;28;20211;-64
2022/02/05 07:22:10;;;;;;;4.73;1.73;;;6.50;99.90;;;;;;5072491;28;20580;-65
2022/02/05 07:24:57;;;;;;;6.67;2.20;;;6.50;99.90;;;;;;5073238;28;20231;-64
2022/02/05 07:30:08;;;;;;;4.33;2.20;;;6.60;99.90;;;;;;5073362;28;20563;-66
2022/02/05 07:32:35;;;;;;;6.97;2.47;;;6.60;99.90;;;;;;5073373;28;20681;-66
2022/02/05 07:35:04;;;;;;;3.50;1.70;;;6.70;99.90;;;;;;5073286;28;20228;-65
2022/02/05 07:37:31;;;;;;;3.77;1.77;;;6.80;99.90;;;;;;5072952;28;20204;-65
2022/02/05 07:39:57;;;;;;;5.63;2.07;;;6.70;99.90;;;;;;5073055;28;20263;-65
2022/02/05 07:42:24;;;;;;;3.77;2.30;;;6.80;99.90;;;;;;5073270;28;20215;-64
2022/02/05 07:44:51;;;;;;;7.53;1.80;;;6.90;99.90;;;;;;5072872;28;20228;-67
2022/02/05 07:47:21;;;;;;;4.30;1.97;;;6.90;99.90;;;;;;5073155;28;20263;-64
2022/02/05 07:49:48;;;;;;;6.77;2.03;;;7.00;99.90;;;;;;5072761;28;20201;-65
2022/02/05 07:52:16;;;;;;;4.13;2.10;;;7.00;99.90;;;;;;5072684;28;20232;-65
2022/02/05 07:54:43;;;;;;;6.97;3.13;;;7.10;99.90;;;;;;5072780;28;20244;-65
2022/02/05 07:57:09;;;;;;;4.67;2.33;;;7.10;99.90;;;;;;5072739;28;20197;-66
2022/02/05 07:59:36;;;;;;;3.90;2.10;;;7.30;99.90;;;;;;5072357;28;20262;-66
2022/02/05 08:02:03;;;;;;;4.80;2.00;;;7.30;99.90;;;;;;5072632;28;20205;-66
2022/02/05 08:04:30;;;;;;;3.17;1.83;;;7.40;99.90;;;;;;5072768;28;20716;-66
2022/02/05 08:06:57;;;;;;;4.47;1.90;;;7.40;99.90;;;;;;5072189;28;20742;-65
2022/02/05 08:09:30;;;;;;;5.00;2.60;;;7.50;99.90;;;;;;5072246;28;20213;-65
2022/02/05 08:12:01;;;;;;;3.73;2.13;;;7.60;99.90;;;;;;5072374;28;20205;-63
2022/02/05 08:14:29;;;;;;;5.50;2.53;;;7.60;99.90;;;;;;5073622;28;20267;-63
2022/02/05 08:17:01;;;;;;;6.03;2.70;;;7.60;99.90;;;;;;5072217;28;20295;-63
2022/02/05 08:19:28;;;;;;;4.93;2.83;;;7.60;99.90;;;;;;5071897;28;20211;-60
2022/02/05 08:21:55;;;;;;;6.03;2.20;;;7.70;99.90;;;;;;5072326;28;20286;-61
2022/02/05 08:24:21;;;;;;;4.27;2.13;;;7.70;99.90;;;;;;5072234;28;20278;-62
2022/02/05 08:26:50;;;;;;;3.93;2.00;;;7.70;99.90;;;;;;5072139;28;20217;-62
2022/02/05 08:29:18;;;;;;;4.83;2.27;;;7.80;99.90;;;;;;5071891;28;20209;-62
2022/02/05 08:31:45;;;;;;;6.57;3.00;;;7.80;99.90;;;;;;5071815;28;20236;-62
2022/02/05 08:34:11;;;;;;;5.10;2.33;;;7.80;99.90;;;;;;5072023;28;20232;-61
2022/02/05 08:36:44;;;;;;;3.87;2.03;;;7.80;99.90;;;;;;5072188;28;20205;-61
2022/02/05 08:39:11;;;;;;;2.27;1.37;;;7.90;99.90;;;;;;5071767;28;20644;-62
2022/02/05 08:41:39;;;;;;;4.57;2.10;;;8.00;99.90;;;;;;5072029;28;20212;-61
2022/02/05 08:44:08;;;;;;;4.37;1.73;;;8.30;99.90;;;;;;5071647;28;20246;-62
2022/02/05 08:46:35;;;;;;;6.10;1.80;;;8.50;99.90;;;;;;5072011;28;20212;-61
2022/02/05 08:49:03;;;;;;;5.10;2.03;;;8.70;99.90;;;;;;5072112;28;20200;-62
2022/02/05 08:51:30;;;;;;;4.53;1.70;;;8.90;99.90;;;;;;5071935;28;20201;-62
2022/02/05 08:53:58;;;;;;;4.00;1.70;;;9.00;99.90;;;;;;5096474;22;20232;-63
2022/02/05 08:56:25;;;;;;;7.43;1.67;;;9.10;99.90;;;;;;5083385;28;20192;-63
2022/02/05 08:58:54;;;;;;;5.27;1.60;;;9.20;99.90;;;;;;5091901;28;20736;-63
2022/02/05 09:01:26;;;;;;;5.33;2.17;;;9.30;99.90;;;;;;5092075;28;20254;-63
2022/02/05 09:04:04;;;;;;;4.93;2.10;;;9.30;99.90;;;;;;5092486;28;20212;-63
2022/02/05 09:06:39;;;;;;;5.57;2.20;;;9.40;99.90;;;;;;5092097;28;20200;-63
2022/02/05 09:09:13;;;;;;;6.30;2.00;;;9.50;99.90;;;;;;5092228;28;20269;-56
2022/02/05 09:11:48;;;;;;;5.13;2.30;;;9.60;99.90;;;;;;5092740;28;20284;-56
2022/02/05 09:14:28;;;;;;;5.07;2.07;;;9.50;99.90;;;;;;5092545;28;20313;-58
2022/02/05 09:16:57;;;;;;;5.73;2.50;;;9.30;99.90;;;;;;5092231;28;20201;-58
2022/02/05 09:19:24;;;;;;;5.37;2.70;;;9.20;99.90;;;;;;5091825;28;20208;-58
2022/02/05 09:21:50;;;;;;;5.70;2.63;;;9.10;99.90;;;;;;5091878;28;20207;-58
2022/02/05 09:24:17;;;;;;;5.17;2.63;;;8.90;99.90;;;;;;5091776;28;20734;-56
2022/02/05 09:26:48;;;;;;;4.00;2.20;;;8.80;99.90;;;;;;5091652;28;20561;-55
2022/02/05 09:29:19;;;;;;;4.73;1.77;;;8.80;99.90;;;;;;5091520;28;20289;-56
2022/02/05 09:31:46;;;;;;;5.23;1.97;;;8.90;99.90;;;;;;5091870;28;20208;-56
2022/02/05 09:34:15;;;;;;;4.03;1.70;;;9.10;99.90;;;;;;5091579;28;20757;-56
2022/02/05 09:36:43;;;;;;;7.30;1.87;;;9.40;99.90;;;;;;5091628;28;20215;-57
2022/02/05 09:39:10;;;;;;;7.53;3.30;;;9.90;99.90;;;;;;5087740;28;20961;-60
2022/02/05 09:41:38;;;;;;;4.33;2.00;;;10.30;99.90;;;;;;5092297;28;20200;-61
2022/02/05 09:44:06;;;;;;;4.10;1.60;;;10.50;99.90;;;;;;5092490;28;20231;-61
2022/02/05 09:46:32;;;;;;;5.03;2.13;;;10.60;99.90;;;;;;5092970;28;20210;-61
2022/02/05 09:48:59;;;;;;;4.30;1.70;;;10.70;99.90;;;;;;5070698;28;20221;-60
2022/02/05 09:51:32;;;;;;;5.17;1.93;;;10.60;99.90;;;;;;5074843;28;20703;-59
2022/02/05 09:54:01;;;;;;;7.00;2.20;;;10.60;99.90;;;;;;5075091;28;20201;-63
2022/02/05 09:56:30;;;;;;;5.83;2.20;;;10.70;99.90;;;;;;5075015;28;20215;-62
2022/02/05 09:58:58;;;;;;;5.57;1.83;;;10.90;99.90;;;;;;5074998;28;20258;-61
2022/02/05 10:01:28;;;;;;;7.20;1.80;;;11.20;99.90;;;;;;5074639;28;20205;-61
2022/02/05 10:03:56;;;;;;;4.60;1.80;;;11.30;99.90;;;;;;5075587;28;20262;-63
2022/02/05 10:06:26;;;;;;;3.87;2.00;;;11.30;99.90;;;;;;5075386;28;20201;-63
2022/02/05 10:09:00;;;;;;;4.23;1.90;;;11.40;99.90;;;;;;5075339;28;20282;-63
2022/02/05 10:11:29;;;;;;;9.97;3.83;;;11.40;99.90;;;;;;5075331;28;20668;-63
2022/02/05 10:13:56;;;;;;;4.53;1.93;;;11.50;99.90;;;;;;5075376;28;20208;-63
2022/02/05 10:16:30;;;;;;;5.93;1.97;;;11.40;99.90;;;;;;5076069;28;20254;-63
2022/02/05 10:18:59;;;;;;;7.03;1.90;;;11.30;99.90;;;;;;5075538;28;20204;-63
2022/02/05 10:21:27;;;;;;;5.07;1.60;;;11.20;99.90;;;;;;5075447;28;20209;-63
2022/02/05 10:23:56;;;;;;;5.80;2.13;;;11.20;99.90;;;;;;5075817;28;20246;-63
2022/02/05 10:26:36;;;;;;;7.27;1.70;;;11.20;99.90;;;;;;5075383;28;20211;-63
2022/02/05 10:29:06;;;;;;;4.00;1.47;;;11.30;99.90;;;;;;5075107;28;20225;-62
2022/02/05 10:31:55;;;;;;;5.87;1.97;;;11.40;99.90;;;;;;5075520;28;20266;-63
2022/02/05 10:34:22;;;;;;;8.20;1.93;;;11.60;99.90;;;;;;5074665;28;20228;-63
2022/02/05 10:37:07;;;;;;;8.07;1.80;;;11.70;99.90;;;;;;5074180;28;20207;-63
2022/02/05 10:39:52;;;;;;;5.87;1.77;;;11.90;99.90;;;;;;5074105;28;20286;-63
2022/02/05 10:45:07;;;;;;;5.80;1.80;;;11.80;99.90;;;;;;5073907;28;20232;-63
2022/02/05 10:47:51;;;;;;;6.50;1.70;;;12.00;99.90;;;;;;5074282;28;20240;-63
2022/02/05 10:50:21;;;;;;;3.17;1.40;;;12.10;99.90;;;;;;5073868;28;20208;-63
2022/02/05 10:52:51;;;;;;;5.03;2.13;;;12.20;99.80;;;;;;5073910;28;20209;-63
2022/02/05 10:55:24;;;;;;;5.97;1.60;;;12.20;99.80;;;;;;5073308;28;20282;-63
2022/02/05 10:58:16;;;;;;;5.50;1.67;;;12.30;99.50;;;;;;5074119;28;20208;-64
2022/02/05 11:06:11;;;;;;;5.80;1.70;;;12.60;99.00;;;;;;5073672;28;20204;-64
2022/02/05 11:08:39;;;;;;;6.57;1.77;;;12.50;98.50;;;;;;5073652;28;20228;-64
2022/02/05 11:19:29;;;;;;;4.17;1.57;;;11.20;99.90;;;;;;5072973;28;20227;-65
2022/02/05 11:21:57;;;;;;;3.27;1.50;;;10.70;99.90;;;;;;5073291;28;20213;-64
2022/02/05 11:24:27;;;;;;;4.47;1.30;;;10.30;99.90;;;;;;5072955;28;20286;-66
2022/02/05 11:26:54;;;;;;;6.27;1.50;;;10.10;99.90;;;;;;5073243;28;20225;-66
2022/02/05 11:29:32;;;;;;;5.63;1.57;;;10.10;99.90;;;;;;5073108;28;20233;-66
2022/02/05 11:32:20;;;;;;;6.50;1.87;;;10.20;99.90;;;;;;5073032;28;20652;-66
2022/02/05 11:35:00;;;;;;;3.97;1.07;;;10.10;99.90;;;;;;5072716;28;20225;-66
2022/02/05 11:37:28;;;;;;;7.27;1.47;;;9.90;99.90;;;;;;5072886;28;20204;-66
2022/02/05 11:39:55;;;;;;;9.70;1.83;;;9.70;99.90;;;;;;5072467;28;20217;-66
2022/02/05 11:42:31;;;;;;;9.60;3.47;;;9.60;99.90;;;;;;5072677;28;20700;-66
2022/02/05 11:45:01;;;;;;;5.77;1.47;;;9.40;99.90;;;;;;5072817;28;20313;-66
2022/02/05 11:47:30;;;;;;;4.23;2.20;;;9.40;99.90;;;;;;5072550;28;20230;-66
2022/02/05 11:50:24;;;;;;;5.53;1.40;;;9.40;99.90;;;;;;5072740;28;20239;-66
2022/02/05 11:52:58;;;;;;;7.03;1.80;;;9.30;99.90;;;;;;5072653;28;20201;-66
2022/02/05 11:55:37;;;;;;;3.30;1.40;;;9.30;99.90;;;;;;5072386;28;20239;-66
2022/02/05 11:58:06;;;;;;;6.27;2.30;;;9.20;99.90;;;;;;5072435;28;20239;-67
2022/02/05 12:00:36;;;;;;;7.47;2.87;;;9.20;99.90;;;;;;5072291;28;20650;-67
2022/02/05 12:03:32;;;;;;;4.63;1.30;;;9.20;99.90;;;;;;5072694;28;20212;-67
2022/02/05 12:06:05;;;;;;;3.33;1.00;;;9.30;99.90;;;;;;5072217;28;20274;-67
2022/02/05 12:08:36;;;;;;;2.67;1.33;;;9.30;99.90;;;;;;5071667;28;20233;-67
2022/02/05 12:11:32;;;;;;;5.23;1.77;;;9.30;99.90;;;;;;5071947;28;20673;-67
2022/02/05 12:14:15;;;;;;;6.77;2.80;;;9.30;99.90;;;;;;5071985;28;20209;-65
2022/02/05 12:17:07;;;;;;;6.53;2.50;;;9.30;99.90;;;;;;5088674;28;20211;-60
2022/02/05 12:19:52;;;;;;;4.50;1.07;;;9.20;99.90;;;;;;5092066;28;20250;-61
2022/02/05 12:22:24;;;;;;;6.60;1.40;;;9.10;99.90;;;;;;5092304;28;20238;-62
2022/02/05 12:25:11;;;;;;;3.93;1.10;;;8.90;99.90;;;;;;5091669;28;20703;-60
2022/02/05 12:27:39;;;;;;;6.33;1.10;;;8.90;99.90;;;;;;5092094;28;20261;-61
2022/02/05 12:30:37;;;;;;;4.87;1.03;;;8.70;99.90;;;;;;5070972;28;20205;-60
2022/02/05 12:33:06;;;;;;;3.80;1.20;;;8.60;99.90;;;;;;5051917;28;20205;-61
2022/02/05 12:35:34;;;;;;;8.23;2.77;;;8.70;99.90;;;;;;5071654;28;20231;-61
2022/02/05 12:38:05;;;;;;;3.73;1.40;;;8.80;99.90;;;;;;5071953;28;20212;-60
2022/02/05 12:40:40;;;;;;;1.80;0.90;;;8.90;99.90;;;;;;5072530;28;20205;-61
2022/02/05 12:43:09;;;;;;;2.57;0.87;;;8.90;99.90;;;;;;5072618;28;20207;-60
2022/02/05 12:45:48;;;;;;;2.30;0.90;;;8.90;99.90;;;;;;5072175;28;20231;-56
2022/02/05 12:48:19;;;;;;;8.40;1.87;;;8.80;99.90;;;;;;5072164;28;20692;-58
2022/02/05 12:50:48;;;;;;;2.80;1.17;;;8.80;99.90;;;;;;5072012;28;20216;-60
2022/02/05 12:53:15;;;;;;;3.13;1.27;;;8.80;99.90;;;;;;5071924;28;20212;-60
2022/02/05 12:55:45;;;;;;;3.77;1.27;;;8.90;99.90;;;;;;5071860;28;20579;-63
2022/02/05 12:58:18;;;;;;;3.03;1.43;;;9.20;99.90;;;;;;5071639;28;20205;-60
2022/02/05 13:00:45;;;;;;;3.17;1.03;;;9.50;99.90;;;;;;5071570;28;20266;-61
2022/02/05 13:03:30;;;;;;;4.73;1.30;;;9.70;99.90;;;;;;5071749;28;20308;-58
2022/02/05 13:05:57;;;;;;;4.73;1.20;;;10.00;99.90;;;;;;5071494;28;20232;-60
2022/02/05 13:08:24;;;;;;;5.00;1.37;;;10.30;99.90;;;;;;5071436;28;20271;-60
2022/02/05 13:10:51;;;;;;;3.87;0.90;;;10.40;99.90;;;;;;5071085;28;20213;-62
2022/02/05 13:13:21;;;;;;;2.57;0.83;;;10.20;99.90;;;;;;5071324;28;20208;-64
2022/02/05 13:15:52;;;;;;;5.60;0.90;;;10.10;99.90;;;;;;5071447;28;20232;-61
2022/02/05 13:18:27;;;;;;;3.03;1.40;;;10.00;99.90;;;;;;5072417;28;20614;-62
2022/02/05 13:26:22;;;;;;;3.57;1.30;;;9.70;99.90;;;;;;5090508;28;20203;-59
2022/02/05 13:29:16;;;;;;;3.03;1.07;;;9.60;99.90;;;;;;5095313;28;20226;-62
2022/02/05 13:34:33;;;;;;;4.77;1.27;;;9.40;99.90;;;;;;5095575;28;20214;-61
2022/02/05 13:37:10;;;;;;;3.43;1.30;;;9.60;99.90;;;;;;5095749;28;20212;-61
2022/02/05 13:39:49;;;;;;;3.40;1.00;;;9.60;99.90;;;;;;5095210;28;20227;-62
2022/02/05 13:42:20;;;;;;;3.20;1.20;;;9.70;99.90;;;;;;5095278;28;20207;-62
2022/02/05 13:44:56;;;;;;;2.47;1.07;;;9.90;99.90;;;;;;5095299;28;20233;-60
2022/02/05 13:47:24;;;;;;;3.90;1.50;;;10.10;99.70;;;;;;5095436;28;20212;-60
2022/02/05 13:50:13;;;;;;;3.37;1.07;;;10.30;99.70;;;;;;5094842;28;20224;-60
2022/02/05 13:52:42;;;;;;;5.17;1.70;;;10.40;99.80;;;;;;5094935;28;20208;-60
2022/02/05 13:55:15;;;;;;;4.27;1.50;;;10.20;99.90;;;;;;5094946;28;20326;-60
2022/02/05 13:58:05;;;;;;;3.60;1.20;;;10.10;99.90;;;;;;5095018;28;20216;-60
2022/02/05 14:00:42;;;;;;;2.27;0.90;;;10.00;99.90;;;;;;5095537;28;20204;-58
2022/02/05 14:03:09;;;;;;;4.37;1.40;;;9.70;99.90;;;;;;5090150;28;20208;-62
2022/02/05 14:05:36;;;;;;;3.67;1.57;;;9.60;99.90;;;;;;5074369;28;20230;-65
2022/02/05 14:08:04;;;;;;;5.13;2.03;;;9.70;99.90;;;;;;5074987;28;20204;-63
2022/02/05 14:10:32;;;;;;;5.40;1.00;;;9.80;99.90;;;;;;5074598;28;20642;-63
2022/02/05 14:12:59;;;;;;;4.73;1.10;;;9.90;99.90;;;;;;5075058;28;20235;-62
2022/02/05 14:15:28;;;;;;;4.80;2.23;;;9.90;99.90;;;;;;5074104;28;20225;-60
2022/02/05 14:18:10;;;;;;;5.07;1.23;;;9.90;99.90;;;;;;5074243;28;20212;-61
2022/02/05 14:20:49;;;;;;;4.63;1.63;;;9.90;99.90;;;;;;5079335;28;20229;-60
2022/02/05 14:23:17;;;;;;;5.73;1.60;;;10.00;99.90;;;;;;5094965;28;20211;-61
2022/02/05 14:25:57;;;;;;;5.63;1.33;;;10.20;99.90;;;;;;5084024;28;20252;-62
2022/02/05 14:28:31;;;;;;;3.83;1.27;;;10.30;99.90;;;;;;5073748;28;20220;-62
2022/02/05 14:31:12;;;;;;;4.60;1.00;;;10.30;99.90;;;;;;5073560;28;20758;-62
2022/02/05 14:34:02;;;;;;;2.20;1.50;;;10.40;99.70;;;;;;5074643;28;20205;-64
2022/02/05 14:36:43;;;;;;;3.93;1.20;;;10.60;99.80;;;;;;5074234;28;20236;-62
2022/02/05 14:41:57;;;;;;;1.80;0.77;;;10.90;98.60;;;;;;5074001;28;20330;-64
2022/02/05 14:44:24;;;;;;;4.43;2.60;;;10.80;98.40;;;;;;5073901;28;20225;-64
2022/02/05 14:46:51;;;;;;;3.00;1.13;;;10.90;98.60;;;;;;5073772;28;20204;-64
2022/02/05 14:49:19;;;;;;;4.73;1.00;;;10.90;98.80;;;;;;5073839;28;20235;-64
2022/02/05 14:51:46;;;;;;;2.07;0.83;;;10.90;98.70;;;;;;5073518;28;20231;-67
2022/02/05 14:54:13;;;;;;;2.13;0.90;;;10.90;98.30;;;;;;5074458;28;20237;-61